Time;durP1;ratioP1;P1;durP2;ratioP2;P2;SDS_P1;SDS_P2;PMS_P1;PMS_P2;Temp;Humidity;BMP_temperature;BMP_pressure;BME280_temperature;BME280_humidity;BME280_pressure;Samples;Min_cycle;Max_cycle;Signal;HPM_P1;HPM_P2
2023/02/12 00:01:11;;;;;;;7.88;2.35;;;;;;;10.31;84.16;102225.09;2095524;28;20412;-80
2023/02/12 00:02:34;;;;;;;4.07;2.00;;;;;;;10.31;84.86;102225.09;2089414;28;20131;-80
2023/02/12 00:03:56;;;;;;;4.35;1.95;;;;;;;10.32;85.18;102210.16;2085923;28;20049;-81
2023/02/12 00:05:17;;;;;;;5.68;1.80;;;;;;;10.33;85.40;102222.53;2088443;28;20045;-80
2023/02/12 00:06:40;;;;;;;4.45;1.90;;;;;;;10.32;86.13;102213.72;2077513;28;20106;-81
2023/02/12 00:08:01;;;;;;;5.57;2.22;;;;;;;10.35;86.80;102221.78;2086986;28;20075;-80
2023/02/12 00:09:25;;;;;;;4.90;2.13;;;;;;;10.34;87.73;102219.97;2086779;28;20052;-80
2023/02/12 00:10:46;;;;;;;2.22;1.60;;;;;;;10.34;88.52;102214.69;2086922;28;20049;-81
2023/02/12 00:12:09;;;;;;;4.63;1.80;;;;;;;10.35;89.75;102213.84;2094183;28;20104;-80
2023/02/12 00:13:30;;;;;;;5.95;2.35;;;;;;;10.37;90.60;102220.06;2079984;28;20037;-79
2023/02/12 00:14:52;;;;;;;5.85;1.95;;;;;;;10.36;91.35;102210.38;2091480;28;20055;-80
2023/02/12 00:16:17;;;;;;;4.18;2.00;;;;;;;10.37;92.00;102213.91;2089404;28;20049;-80
2023/02/12 00:17:38;;;;;;;4.63;2.25;;;;;;;10.38;92.47;102223.59;2086773;28;20413;-80
2023/02/12 00:19:00;;;;;;;7.38;2.38;;;;;;;10.38;93.02;102216.59;2084135;28;20102;-81
2023/02/12 00:20:23;;;;;;;6.43;2.33;;;;;;;10.38;93.53;102218.31;2088948;28;20079;-80
2023/02/12 00:21:45;;;;;;;4.07;2.17;;;;;;;10.38;93.70;102208.66;2086653;28;20049;-79
2023/02/12 00:23:06;;;;;;;3.70;1.80;;;;;;;10.38;94.12;102207.78;2086491;28;20037;-80
2023/02/12 00:24:30;;;;;;;5.47;2.05;;;;;;;10.37;94.05;102208.63;2086728;28;20048;-80
2023/02/12 00:25:51;;;;;;;3.95;1.83;;;;;;;10.36;93.77;102212.13;2094941;28;20083;-80
2023/02/12 00:27:14;;;;;;;6.53;2.10;;;;;;;10.35;93.04;102208.56;2088976;28;20053;-80
2023/02/12 00:28:35;;;;;;;3.83;1.70;;;;;;;10.36;93.18;102213.00;2085144;28;20057;-80
2023/02/12 00:29:58;;;;;;;5.35;1.90;;;;;;;10.36;93.21;102207.72;2103122;28;20044;-80
2023/02/12 00:31:23;;;;;;;5.78;2.15;;;;;;;10.37;92.75;102204.22;2091800;28;20045;-80
2023/02/12 00:32:45;;;;;;;3.42;1.83;;;;;;;10.36;92.47;102197.19;2087046;28;20052;-80
2023/02/12 00:34:07;;;;;;;4.75;1.75;;;;;;;10.38;91.74;102199.84;2078274;28;20041;-81
2023/02/12 00:35:30;;;;;;;6.82;1.95;;;;;;;10.39;91.26;102199.91;2084068;28;20056;-80
2023/02/12 00:36:52;;;;;;;3.30;1.90;;;;;;;10.39;90.86;102194.63;2086354;28;20045;-80
2023/02/12 00:38:15;;;;;;;5.63;1.80;;;;;;;10.42;90.64;102191.22;2078413;28;20107;-80
2023/02/12 00:39:42;;;;;;;4.75;2.08;;;;;;;10.45;91.02;102186.06;2083182;28;20048;-80
2023/02/12 00:41:05;;;;;;;5.47;2.28;;;;;;;10.47;92.01;102191.41;2079233;28;20053;-81
2023/02/12 00:42:27;;;;;;;5.22;2.40;;;;;;;10.47;92.66;102194.94;2093760;28;20040;-81
2023/02/12 00:43:52;;;;;;;5.57;2.05;;;;;;;10.50;93.22;102188.91;2082995;28;20057;-80
2023/02/12 00:45:13;;;;;;;5.25;2.03;;;;;;;10.51;94.43;102190.66;2078923;28;20100;-80
2023/02/12 00:46:36;;;;;;;4.07;1.83;;;;;;;10.51;96.09;102180.09;2083821;28;20079;-80
2023/02/12 00:47:57;;;;;;;5.63;1.98;;;;;;;10.52;97.85;102188.09;2086585;28;20041;-80
2023/02/12 00:49:20;;;;;;;7.47;2.25;;;;;;;10.53;100.00;102191.63;2076295;28;20232;-80
2023/02/12 00:50:45;;;;;;;8.02;2.53;;;;;;;10.53;100.00;102187.25;2075185;28;20091;-81
2023/02/12 00:52:07;;;;;;;5.32;2.20;;;;;;;10.54;100.00;102190.81;2086706;28;20053;-80
2023/02/12 00:53:28;;;;;;;6.75;2.55;;;;;;;10.55;100.00;102195.25;2094687;28;20082;-79
2023/02/12 00:54:52;;;;;;;5.50;2.50;;;;;;;10.54;100.00;102181.13;2079676;28;20141;-79
2023/02/12 00:56:13;;;;;;;8.57;2.40;;;;;;;10.52;100.00;102187.19;2083982;28;20115;-80
2023/02/12 00:57:36;;;;;;;4.88;2.60;;;;;;;10.48;100.00;102172.09;2075223;28;20537;-79
2023/02/12 00:58:58;;;;;;;5.68;2.35;;;;;;;10.42;100.00;102177.13;2075209;28;20595;-79
2023/02/12 01:00:20;;;;;;;6.57;2.05;;;;;;;10.35;100.00;102173.34;2084548;28;20041;-79
2023/02/12 01:01:42;;;;;;;6.38;2.15;;;;;;;10.31;100.00;102174.94;2084487;28;20044;-78
2023/02/12 01:03:04;;;;;;;8.60;2.10;;;;;;;10.27;100.00;102175.69;2093696;28;20135;-79
2023/02/12 01:04:27;;;;;;;7.25;2.30;;;;;;;10.21;100.00;102175.44;2080856;28;20444;-78
2023/02/12 01:05:50;;;;;;;6.55;2.63;;;;;;;10.14;100.00;102177.75;2075542;28;20092;-79
2023/02/12 01:07:15;;;;;;;7.90;2.95;;;;;;;10.05;100.00;102178.25;2084293;28;20097;-78
2023/02/12 01:08:37;;;;;;;8.13;2.25;;;;;;;10.00;100.00;102179.81;2086339;28;20071;-79
2023/02/12 01:10:01;;;;;;;7.63;2.35;;;;;;;9.95;100.00;102160.28;2083792;28;20292;-78
2023/02/12 01:11:25;;;;;;;8.48;2.40;;;;;;;9.91;100.00;102161.00;2102082;28;20520;-78
2023/02/12 01:12:46;;;;;;;5.68;2.10;;;;;;;9.89;100.00;102170.56;2090306;28;20051;-78
2023/02/12 01:14:09;;;;;;;5.13;2.28;;;;;;;9.88;100.00;102166.13;2102775;28;20110;-78
2023/02/12 01:15:30;;;;;;;5.97;2.00;;;;;;;9.88;100.00;102169.69;2091367;28;20072;-79
2023/02/12 01:16:52;;;;;;;10.07;2.70;;;;;;;9.88;100.00;102164.41;2076786;28;20626;-79
2023/02/12 01:18:15;;;;;;;6.25;2.10;;;;;;;9.89;100.00;102162.66;2083444;28;20420;-79
2023/02/12 01:19:37;;;;;;;4.70;2.00;;;;;;;9.89;100.00;102155.66;2077927;28;20079;-79
2023/02/12 01:20:58;;;;;;;5.68;2.15;;;;;;;9.93;100.00;102154.03;2083442;28;20075;-79
2023/02/12 01:22:20;;;;;;;4.80;1.80;;;;;;;9.94;100.00;102162.00;2084723;28;20099;-79
2023/02/12 01:23:44;;;;;;;5.25;2.08;;;;;;;9.98;100.00;102156.00;2085862;28;20060;-79
2023/02/12 01:25:08;;;;;;;7.57;1.75;;;;;;;9.98;100.00;102153.38;2080599;28;20053;-79
2023/02/12 01:26:31;;;;;;;7.28;2.35;;;;;;;10.01;100.00;102163.16;2085104;28;20489;-79
2023/02/12 01:27:54;;;;;;;7.05;2.20;;;;;;;10.03;100.00;102157.94;2094408;28;20424;-79
2023/02/12 01:29:15;;;;;;;5.32;2.03;;;;;;;10.03;100.00;102161.50;2074756;28;20074;-79
2023/02/12 01:30:38;;;;;;;9.23;2.17;;;;;;;10.04;100.00;102158.03;2084053;28;20065;-80
2023/02/12 01:32:01;;;;;;;6.32;2.40;;;;;;;10.07;100.00;102162.50;2088690;28;20041;-79
2023/02/12 01:33:22;;;;;;;4.47;1.92;;;;;;;10.07;100.00;102152.84;2086167;28;20101;-79
2023/02/12 01:34:44;;;;;;;9.82;2.30;;;;;;;10.09;100.00;102158.19;2092389;28;20049;-79
2023/02/12 01:36:06;;;;;;;5.07;2.20;;;;;;;10.11;100.00;102159.16;2097126;28;20107;-80
2023/02/12 01:37:29;;;;;;;7.93;2.83;;;;;;;10.13;100.00;102155.72;2090613;28;20401;-79
2023/02/12 01:38:51;;;;;;;5.85;2.08;;;;;;;10.16;100.00;102158.50;2102421;28;20075;-79
2023/02/12 01:40:19;;;;;;;7.53;2.38;;;;;;;10.17;100.00;102152.44;2082317;28;20072;-80
2023/02/12 01:41:45;;;;;;;7.50;2.83;;;;;;;10.17;100.00;102155.06;2080650;28;20057;-81
2023/02/12 01:43:10;;;;;;;7.32;2.33;;;;;;;10.18;100.00;102151.56;2084056;28;20080;-79
2023/02/12 01:44:35;;;;;;;5.18;2.10;;;;;;;10.18;100.00;102143.63;2086056;28;20056;-80
2023/02/12 01:46:00;;;;;;;4.78;1.80;;;;;;;10.19;100.00;102136.63;2088765;28;20049;-80
2023/02/12 01:47:22;;;;;;;4.90;1.42;;;;;;;10.20;100.00;102146.34;2084594;28;20140;-79
2023/02/12 01:48:48;;;;;;;6.88;2.05;;;;;;;10.21;100.00;102143.78;2084286;28;20047;-80
2023/02/12 01:50:12;;;;;;;5.45;1.65;;;;;;;10.22;100.00;102139.41;2078196;28;20049;-80
2023/02/12 01:51:36;;;;;;;5.57;1.60;;;;;;;10.20;100.00;102138.44;2075235;28;20041;-80
2023/02/12 01:52:58;;;;;;;6.65;2.00;;;;;;;10.22;100.00;102135.03;2083750;28;20057;-80
2023/02/12 01:54:24;;;;;;;5.00;1.92;;;;;;;10.23;100.00;102134.19;2085989;28;20041;-80
2023/02/12 01:55:52;;;;;;;9.05;2.70;;;;;;;10.24;100.00;102135.09;2078945;28;20069;-80
2023/02/12 01:57:17;;;;;;;30.10;11.77;;;;;;;10.23;100.00;102139.47;2070414;28;20105;-80
2023/02/12 01:58:41;;;;;;;95.53;42.00;;;;;;;10.22;100.00;102129.75;2078121;28;20144;-80
2023/02/12 02:00:09;;;;;;;37.28;16.48;;;;;;;10.24;100.00;102135.97;2076184;28;20042;-80
2023/02/12 02:01:35;;;;;;;47.47;21.05;;;;;;;10.25;100.00;102127.22;2092896;28;20076;-80
2023/02/12 02:03:00;;;;;;;38.10;16.52;;;;;;;10.26;100.00;102123.72;2080314;28;20551;-81
2023/02/12 02:04:27;;;;;;;102.05;48.78;;;;;;;10.26;100.00;102131.66;2086576;28;20072;-80
2023/02/12 02:05:55;;;;;;;78.28;39.28;;;;;;;10.26;100.00;102136.94;2086149;28;20045;-80
2023/02/12 02:07:17;;;;;;;38.80;17.42;;;;;;;10.27;100.00;102128.19;2086192;28;20088;-80
2023/02/12 02:08:40;;;;;;;39.97;19.88;;;;;;;10.29;100.00;102130.88;2088584;28;20151;-80
2023/02/12 02:10:07;;;;;;;12.95;5.57;;;;;;;10.30;100.00;102127.41;2077236;28;20140;-80
2023/02/12 02:14:52;;;;;;;13.88;8.13;;;;;;;10.25;100.00;102121.94;2096235;28;20588;-80
2023/02/12 02:16:19;;;;;;;22.85;12.55;;;;;;;10.23;100.00;102123.63;2087857;28;20049;-80
2023/02/12 02:17:51;;;;;;;20.58;10.40;;;;;;;10.23;100.00;102126.28;2088570;28;20140;-80
2023/02/12 02:19:25;;;;;;;13.77;7.18;;;;;;;10.25;100.00;102134.22;2080207;28;20671;-80
2023/02/12 02:21:41;;;;;;;12.25;6.50;;;;;;;10.26;100.00;102130.75;2095617;28;20496;-80
2023/02/12 02:23:26;;;;;;;7.75;3.80;;;;;;;10.27;100.00;102122.91;2079255;28;20132;-80
2023/02/12 02:25:13;;;;;;;8.80;2.67;;;;;;;10.29;100.00;102122.97;2048101;28;20206;-80
2023/02/12 02:27:12;;;;;;;6.38;3.13;;;;;;;10.30;100.00;102120.41;2096612;28;20094;-80
2023/02/12 02:28:56;;;;;;;9.27;3.33;;;;;;;10.30;100.00;102130.06;2096712;28;20043;-80
2023/02/12 02:30:44;;;;;;;5.57;2.88;;;;;;;10.31;100.00;102127.44;2088593;28;20373;-80
2023/02/12 02:32:09;;;;;;;6.35;2.20;;;;;;;10.32;100.00;102125.72;2088427;28;20044;-81
2023/02/12 02:33:40;;;;;;;5.32;2.22;;;;;;;10.33;100.00;102117.84;2094332;28;20417;-80
2023/02/12 02:35:09;;;;;;;4.97;2.33;;;;;;;10.33;100.00;102124.88;2088383;28;20436;-81
2023/02/12 02:36:37;;;;;;;8.10;3.92;;;;;;;10.32;100.00;102126.59;2086982;28;20387;-80
2023/02/12 02:38:12;;;;;;;7.05;2.30;;;;;;;10.33;100.00;102117.84;2078401;28;20057;-80
2023/02/12 02:39:39;;;;;;;8.27;3.03;;;;;;;10.31;100.00;102111.59;2095989;28;20136;-80
2023/02/12 02:41:07;;;;;;;5.47;2.30;;;;;;;10.31;100.00;102118.63;2090004;28;20048;-81
2023/02/12 02:42:35;;;;;;;8.43;2.50;;;;;;;10.29;100.00;102115.94;2080471;28;20047;-81
2023/02/12 02:43:57;;;;;;;9.82;3.08;;;;;;;10.29;100.00;102121.22;2086291;28;20104;-81
2023/02/12 02:45:26;;;;;;;8.20;2.60;;;;;;;10.31;100.00;102119.53;2082857;28;20052;-82
2023/02/12 02:46:53;;;;;;;5.68;1.75;;;;;;;10.32;100.00;102115.16;2086913;28;20037;-80
2023/02/12 02:48:21;;;;;;;6.10;2.35;;;;;;;10.33;100.00;102122.22;2087783;28;20045;-81
2023/02/12 02:49:47;;;;;;;4.70;1.60;;;;;;;10.31;100.00;102122.16;2079885;28;20140;-81
2023/02/12 02:51:12;;;;;;;6.38;1.67;;;;;;;10.30;100.00;102111.56;2078181;28;20445;-81
2023/02/12 02:52:38;;;;;;;7.85;1.42;;;;;;;10.30;100.00;102117.75;2078041;28;20103;-81
2023/02/12 02:54:07;;;;;;;6.53;1.92;;;;;;;10.32;100.00;102125.72;2094359;28;20492;-81
2023/02/12 02:55:36;;;;;;;5.78;2.03;;;;;;;10.33;100.00;102111.66;2081706;28;20056;-81
2023/02/12 02:57:03;;;;;;;3.20;1.67;;;;;;;10.35;100.00;102113.53;2085729;28;20048;-81
2023/02/12 02:58:31;;;;;;;3.97;1.52;;;;;;;10.39;100.00;102122.47;2085329;28;20402;-81
2023/02/12 02:59:58;;;;;;;5.03;1.60;;;;;;;10.39;100.00;102115.44;2078200;28;20053;-79
2023/02/12 03:01:25;;;;;;;6.30;2.05;;;;;;;10.39;100.00;102109.25;2083069;28;20048;-81
2023/02/12 03:02:55;;;;;;;5.13;2.00;;;;;;;10.39;100.00;102110.16;2086044;28;20444;-79
2023/02/12 03:04:20;;;;;;;5.00;1.40;;;;;;;10.40;100.00;102113.72;2094806;28;20546;-81
2023/02/12 03:05:45;;;;;;;5.05;1.80;;;;;;;10.41;100.00;102109.31;2083147;28;20065;-80
2023/02/12 03:07:10;;;;;;;5.93;1.70;;;;;;;10.42;100.00;102105.84;2071087;28;20045;-80
2023/02/12 03:08:38;;;;;;;3.53;1.50;;;;;;;10.41;100.00;102119.88;2082229;28;20044;-80
2023/02/12 03:10:06;;;;;;;4.32;1.65;;;;;;;10.42;100.00;102119.97;2103896;28;20044;-81
2023/02/12 03:11:30;;;;;;;5.60;1.92;;;;;;;10.42;100.00;102112.03;2083672;28;20583;-81
2023/02/12 03:12:57;;;;;;;5.18;1.90;;;;;;;10.44;100.00;102109.44;2095474;28;20045;-80
2023/02/12 03:14:23;;;;;;;6.55;1.42;;;;;;;10.44;100.00;102106.78;2083742;28;20049;-80
2023/02/12 03:15:50;;;;;;;4.40;1.60;;;;;;;10.44;100.00;102109.44;2079392;28;20465;-80
2023/02/12 03:17:17;;;;;;;3.55;1.33;;;;;;;10.43;100.00;102110.28;2079514;28;20054;-80
2023/02/12 03:18:45;;;;;;;4.22;1.40;;;;;;;10.43;100.00;102110.28;2082137;28;20056;-80
2023/02/12 03:20:14;;;;;;;5.22;1.52;;;;;;;10.42;100.00;102106.75;2079293;28;20143;-81
2023/02/12 03:21:42;;;;;;;6.43;1.60;;;;;;;10.44;100.00;102112.06;2086576;28;20045;-81
2023/02/12 03:23:10;;;;;;;5.07;1.35;;;;;;;10.44;100.00;102102.41;2081710;28;20509;-81
2023/02/12 03:24:37;;;;;;;4.22;1.73;;;;;;;10.44;100.00;102106.78;2087751;28;20547;-81
2023/02/12 03:26:04;;;;;;;5.10;1.50;;;;;;;10.43;100.00;102105.91;2104650;28;20439;-80
2023/02/12 03:27:31;;;;;;;4.18;1.65;;;;;;;10.43;100.00;102105.03;2091355;28;20049;-80
2023/02/12 03:28:53;;;;;;;4.90;1.88;;;;;;;10.42;100.00;102093.56;2096100;28;20159;-80
2023/02/12 03:30:16;;;;;;;3.75;1.60;;;;;;;10.42;100.00;102092.66;2090304;28;20057;-80
2023/02/12 03:31:47;;;;;;;8.23;1.73;;;;;;;10.42;100.00;102088.28;2097913;28;20370;-81
2023/02/12 03:33:19;;;;;;;6.50;1.70;;;;;;;10.42;100.00;102090.00;2082734;28;20045;-80
2023/02/12 03:34:47;;;;;;;;;;;;;;;10.37;100.00;102097.78;2089282;28;20049;-81
2023/02/12 03:36:19;;;;;;;3.30;1.80;;;;;;;10.36;100.00;102088.06;2086029;28;19921;-80
2023/02/12 03:37:50;;;;;;;4.47;1.30;;;;;;;10.35;100.00;102102.09;2087204;28;20049;-81
2023/02/12 03:39:29;;;;;;;6.82;1.95;;;;;;;10.35;100.00;102095.06;2104943;28;20106;-80
2023/02/12 03:40:57;;;;;;;4.28;1.40;;;;;;;10.34;100.00;102095.91;2088994;28;20595;-81
2023/02/12 03:42:32;;;;;;;3.47;1.40;;;;;;;10.34;100.00;102103.81;2089633;28;20044;-80
2023/02/12 03:43:58;;;;;;;4.53;1.70;;;;;;;10.35;100.00;102102.09;2105074;28;20065;-79
2023/02/12 03:45:35;;;;;;;4.43;1.35;;;;;;;10.37;100.00;102103.06;2092009;28;20056;-80
2023/02/12 03:47:01;;;;;;;6.30;1.50;;;;;;;10.36;100.00;102104.78;2088247;28;20404;-80
2023/02/12 03:48:27;;;;;;;4.30;1.25;;;;;;;10.36;100.00;102098.59;2085988;28;20045;-81
2023/02/12 03:49:59;;;;;;;3.17;1.35;;;;;;;10.37;100.00;102098.63;2087456;28;20053;-80
2023/02/12 03:51:25;;;;;;;3.03;1.25;;;;;;;10.35;100.00;102102.97;2071800;28;20140;-80
2023/02/12 03:52:51;;;;;;;5.97;1.30;;;;;;;10.36;100.00;102101.25;2077302;28;20056;-81
2023/02/12 03:54:15;;;;;;;5.57;1.50;;;;;;;10.36;100.00;102088.94;2095364;28;20102;-80
2023/02/12 03:55:42;;;;;;;3.83;1.42;;;;;;;10.35;100.00;102095.06;2083547;28;20100;-81
2023/02/12 03:57:08;;;;;;;3.47;1.40;;;;;;;10.36;100.00;102095.97;2079187;28;20529;-80
2023/02/12 03:58:34;;;;;;;7.75;2.45;;;;;;;10.35;100.00;102094.16;2083450;28;20057;-80
2023/02/12 03:59:56;;;;;;;6.28;1.73;;;;;;;10.37;100.00;102092.50;2104104;28;20062;-80
2023/02/12 04:01:19;;;;;;;5.95;1.58;;;;;;;10.36;100.00;102102.16;2083117;28;20038;-80
2023/02/12 04:02:42;;;;;;;2.85;1.27;;;;;;;10.35;100.00;102102.97;2086424;28;20535;-81
2023/02/12 04:04:06;;;;;;;5.57;1.40;;;;;;;10.35;100.00;102094.16;2087508;28;20082;-81
2023/02/12 04:05:29;;;;;;;8.88;2.00;;;;;;;10.33;100.00;102094.09;2086028;28;20041;-81
2023/02/12 04:06:52;;;;;;;4.78;1.40;;;;;;;10.33;100.00;102095.84;2094995;28;20759;-80
2023/02/12 04:08:15;;;;;;;5.88;1.42;;;;;;;10.32;100.00;102097.56;2089177;28;20051;-81
2023/02/12 04:09:36;;;;;;;3.30;1.67;;;;;;;10.31;99.87;102095.78;2086589;28;20401;-81
2023/02/12 04:11:08;;;;;;;6.13;1.58;;;;;;;10.32;99.64;102097.56;2097727;28;20047;-81
2023/02/12 04:12:45;;;;;;;3.60;1.50;;;;;;;10.30;98.85;102099.28;2090664;28;20045;-81
2023/02/12 04:14:17;;;;;;;4.53;1.52;;;;;;;10.31;98.74;102101.06;2080964;28;20049;-81
2023/02/12 04:15:57;;;;;;;5.35;1.58;;;;;;;10.32;98.68;102094.94;2088258;28;20428;-80
2023/02/12 04:17:26;;;;;;;6.65;1.80;;;;;;;10.33;98.45;102095.84;2083496;28;20084;-80
2023/02/12 04:18:48;;;;;;;4.25;1.90;;;;;;;10.34;98.19;102098.53;2086789;28;20136;-80
2023/02/12 04:20:21;;;;;;;4.80;1.50;;;;;;;10.35;98.20;102089.78;2095183;28;20044;-80
2023/02/12 04:21:55;;;;;;;4.35;1.60;;;;;;;10.34;98.43;102097.66;2089548;28;20276;-80
2023/02/12 04:23:27;;;;;;;4.30;1.20;;;;;;;10.32;98.48;102081.75;2088346;28;20049;-81
2023/02/12 04:24:52;;;;;;;;;;;;;;;10.26;97.83;102092.06;2105235;28;20052;-81
2023/02/12 04:26:23;;;;;;;6.55;1.60;;;;;;;10.26;98.12;102086.78;2091637;28;19929;-81
2023/02/12 04:27:52;;;;;;;4.28;1.88;;;;;;;10.26;97.88;102083.25;2087946;28;20041;-80
2023/02/12 04:29:22;;;;;;;4.25;1.42;;;;;;;10.27;98.01;102096.50;2087830;28;20052;-81
2023/02/12 04:30:52;;;;;;;3.58;1.70;;;;;;;10.26;98.21;102097.34;2104280;28;20040;-81
2023/02/12 04:32:18;;;;;;;3.92;1.60;;;;;;;10.27;98.32;102091.22;2082346;28;20119;-81
2023/02/12 04:33:46;;;;;;;7.68;1.85;;;;;;;10.28;98.27;102097.41;2084755;28;20079;-80
2023/02/12 04:35:20;;;;;;;4.85;1.63;;;;;;;10.27;98.50;102083.31;2103332;28;20043;-80
2023/02/12 04:36:56;;;;;;;5.40;1.63;;;;;;;10.26;97.61;102088.53;2090542;28;20045;-81
2023/02/12 04:38:21;;;;;;;5.20;1.52;;;;;;;10.27;96.61;102091.22;2088381;28;20037;-82
2023/02/12 04:39:45;;;;;;;3.33;1.60;;;;;;;10.29;96.33;102093.94;2095735;28;20079;-81
2023/02/12 04:41:07;;;;;;;3.90;1.92;;;;;;;10.29;96.08;102102.75;2089229;28;20051;-81
2023/02/12 04:42:30;;;;;;;4.65;1.63;;;;;;;10.31;95.39;102094.88;2086660;28;20056;-80
2023/02/12 04:43:51;;;;;;;4.30;1.88;;;;;;;10.30;93.67;102094.00;2102561;28;20051;-80
2023/02/12 04:45:20;;;;;;;3.40;1.70;;;;;;;10.34;93.36;102092.38;2091726;28;20087;-81
2023/02/12 04:46:41;;;;;;;3.15;1.30;;;;;;;10.32;92.86;102091.41;2103971;28;20055;-80
2023/02/12 04:48:04;;;;;;;6.93;1.52;;;;;;;10.33;92.19;102094.09;2092132;28;20517;-81
2023/02/12 04:49:25;;;;;;;4.13;1.58;;;;;;;10.33;90.85;102080.91;2085747;28;20679;-81
2023/02/12 04:50:47;;;;;;;2.92;1.20;;;;;;;10.34;90.43;102092.38;2085902;28;20060;-80
2023/02/12 04:52:11;;;;;;;4.18;1.35;;;;;;;10.34;90.06;102092.38;2089175;28;20620;-80
2023/02/12 04:53:33;;;;;;;4.07;1.38;;;;;;;10.34;89.97;102102.91;2085720;28;20142;-81
2023/02/12 04:54:55;;;;;;;5.30;1.92;;;;;;;10.34;89.57;102100.28;2082432;28;20057;-81
2023/02/12 04:56:17;;;;;;;3.25;1.10;;;;;;;10.33;89.27;102090.56;2078438;28;20508;-81
2023/02/12 04:57:40;;;;;;;8.93;2.33;;;;;;;10.31;88.47;102103.69;2086135;28;20413;-81
2023/02/12 04:59:01;;;;;;;3.05;1.17;;;;;;;10.33;87.98;102098.47;2097589;28;20056;-81
2023/02/12 05:00:23;;;;;;;5.60;1.35;;;;;;;10.33;88.25;102094.09;2084676;28;20102;-80
2023/02/12 05:01:45;;;;;;;8.48;1.15;;;;;;;10.34;89.49;102095.91;2102349;28;20551;-80
2023/02/12 05:03:07;;;;;;;4.22;1.30;;;;;;;10.34;89.97;102097.66;2083644;28;20050;-81
2023/02/12 05:04:29;;;;;;;4.47;1.08;;;;;;;10.34;90.56;102101.19;2084288;28;20065;-81
2023/02/12 05:05:51;;;;;;;5.43;1.13;;;;;;;10.34;90.98;102093.25;2086355;28;20041;-80
2023/02/12 05:07:14;;;;;;;6.07;1.38;;;;;;;10.35;91.10;102100.34;2086538;28;20060;-81
2023/02/12 05:08:36;;;;;;;4.13;1.30;;;;;;;10.35;91.34;102102.09;2094735;28;20075;-81
2023/02/12 05:09:57;;;;;;;3.53;1.85;;;;;;;10.34;91.30;102102.91;2083101;28;20413;-80
2023/02/12 05:11:21;;;;;;;4.05;1.40;;;;;;;10.33;91.43;102096.75;2089177;28;20040;-81
2023/02/12 05:12:42;;;;;;;8.10;1.70;;;;;;;10.34;91.71;102102.91;2086646;28;20435;-81
2023/02/12 05:14:04;;;;;;;3.03;1.10;;;;;;;10.33;91.41;102101.13;2077693;28;20144;-81
2023/02/12 05:15:26;;;;;;;7.20;2.00;;;;;;;10.32;91.29;102105.50;2085235;28;20052;-81
2023/02/12 05:16:48;;;;;;;4.97;1.30;;;;;;;10.30;91.06;102107.19;2086359;28;20045;-80
2023/02/12 05:18:09;;;;;;;2.92;1.35;;;;;;;10.28;91.14;102103.59;2087152;28;20037;-81
2023/02/12 05:19:32;;;;;;;6.05;1.55;;;;;;;10.27;91.09;102106.16;2086079;28;20122;-81
2023/02/12 05:20:56;;;;;;;5.70;1.67;;;;;;;10.25;91.41;102107.84;2085287;28;20110;-80
2023/02/12 05:22:20;;;;;;;4.57;1.40;;;;;;;10.21;91.96;102105.94;2086147;28;20128;-80
2023/02/12 05:23:43;;;;;;;4.30;1.38;;;;;;;10.16;92.85;102112.75;2088939;28;20071;-81
2023/02/12 05:25:05;;;;;;;3.90;1.30;;;;;;;10.14;93.03;102115.31;2085215;28;20053;-81
2023/02/12 05:26:27;;;;;;;;;;;;;;;10.06;93.38;102114.09;2086508;28;20539;-81
2023/02/12 05:27:49;;;;;;;3.50;1.38;;;;;;;10.02;93.95;102104.28;2094708;28;19920;-80
2023/02/12 05:29:12;;;;;;;6.65;2.28;;;;;;;10.01;93.85;102107.75;2088633;28;20107;-82
2023/02/12 05:30:33;;;;;;;3.95;1.67;;;;;;;9.98;93.75;102113.81;2101901;28;20048;-80
2023/02/12 05:31:55;;;;;;;5.03;1.80;;;;;;;9.99;93.62;102112.97;2090749;28;20068;-79
2023/02/12 05:33:16;;;;;;;4.90;1.70;;;;;;;10.03;93.25;102111.38;2095383;28;20043;-81
2023/02/12 05:34:39;;;;;;;5.13;1.70;;;;;;;10.06;92.97;102114.09;2082974;28;20057;-79
2023/02/12 05:36:04;;;;;;;3.00;1.42;;;;;;;10.10;92.77;102116.03;2077810;28;20046;-79
2023/02/12 05:37:27;;;;;;;4.38;1.50;;;;;;;10.12;92.95;102119.63;2078160;28;20135;-81
2023/02/12 05:38:50;;;;;;;3.65;1.23;;;;;;;10.11;93.40;102111.66;2078002;28;20053;-80
2023/02/12 05:40:13;;;;;;;5.10;1.88;;;;;;;10.12;93.70;102119.63;2079740;28;20049;-80
2023/02/12 05:41:34;;;;;;;4.72;1.58;;;;;;;10.16;94.56;102123.28;2090289;28;20052;-80
2023/02/12 05:42:56;;;;;;;3.97;1.50;;;;;;;10.22;95.33;102124.47;2082269;28;20100;-81
2023/02/12 05:44:18;;;;;;;2.65;1.25;;;;;;;10.28;96.16;102127.34;2090072;28;20385;-81
2023/02/12 05:45:43;;;;;;;5.30;1.90;;;;;;;10.32;96.54;102137.16;2078121;28;20049;-81
2023/02/12 05:47:04;;;;;;;5.78;2.10;;;;;;;10.36;97.13;102118.00;2074699;28;20046;-80
2023/02/12 05:48:26;;;;;;;3.75;1.40;;;;;;;10.42;97.68;102125.25;2083591;28;20059;-81
2023/02/12 05:49:47;;;;;;;5.78;1.27;;;;;;;10.48;97.51;102119.28;2077966;28;20045;-81
2023/02/12 05:51:12;;;;;;;3.78;1.15;;;;;;;10.60;97.88;102114.47;2083482;28;20041;-81
2023/02/12 05:52:36;;;;;;;8.02;1.40;;;;;;;10.74;98.36;102126.44;2085636;28;20468;-80
2023/02/12 05:53:59;;;;;;;4.05;1.13;;;;;;;10.90;97.94;102120.84;2084955;28;20052;-81
2023/02/12 05:55:22;;;;;;;5.28;1.48;;;;;;;11.01;97.83;102130.06;2085342;28;20033;-81
2023/02/12 05:56:46;;;;;;;3.67;1.23;;;;;;;11.07;96.94;102132.94;2086249;28;20143;-81
2023/02/12 05:58:08;;;;;;;7.60;1.70;;;;;;;11.11;96.31;102133.94;2094317;28;20053;-80
2023/02/12 05:59:30;;;;;;;3.97;1.20;;;;;;;11.10;96.16;102135.66;2087951;28;20041;-80
2023/02/12 06:00:52;;;;;;;4.82;1.38;;;;;;;11.07;96.29;102134.69;2085554;28;20080;-80
2023/02/12 06:02:14;;;;;;;4.65;1.50;;;;;;;11.03;96.59;102133.66;2082973;28;20106;-80
2023/02/12 06:03:35;;;;;;;51.42;19.42;;;;;;;11.04;96.65;102135.47;2084649;28;20152;-80
2023/02/12 06:04:57;;;;;;;13.23;4.65;;;;;;;11.06;96.74;102136.41;2085930;28;20580;-80
2023/02/12 06:06:19;;;;;;;7.40;2.17;;;;;;;11.06;96.43;102133.78;2094046;28;20063;-80
2023/02/12 06:07:42;;;;;;;5.47;1.48;;;;;;;11.15;96.56;102134.13;2088663;28;20135;-80
2023/02/12 06:09:05;;;;;;;3.20;1.52;;;;;;;11.27;96.54;102132.72;2085536;28;20052;-80
2023/02/12 06:10:27;;;;;;;2.28;1.10;;;;;;;11.34;96.37;102134.75;2085023;28;20493;-79
2023/02/12 06:11:49;;;;;;;3.80;1.10;;;;;;;11.39;96.02;102128.75;2083136;28;20045;-80
2023/02/12 06:13:11;;;;;;;5.50;1.33;;;;;;;11.37;95.46;102132.19;2084938;28;20116;-80
2023/02/12 06:14:33;;;;;;;5.50;1.63;;;;;;;11.33;95.19;102143.53;2092328;28;20617;-81
2023/02/12 06:15:54;;;;;;;2.80;1.42;;;;;;;11.31;95.67;102135.53;2086441;28;20501;-81
2023/02/12 06:17:16;;;;;;;6.57;1.60;;;;;;;11.28;96.29;102134.53;2085841;28;20037;-78
2023/02/12 06:18:38;;;;;;;5.18;2.40;;;;;;;11.21;96.72;102135.16;2085431;28;20049;-81
2023/02/12 06:20:00;;;;;;;5.30;1.90;;;;;;;11.16;97.26;102143.81;2083322;28;20056;-81
2023/02/12 06:21:24;;;;;;;6.97;1.70;;;;;;;11.16;97.39;102140.28;2077755;28;20409;-81
2023/02/12 06:22:47;;;;;;;3.80;1.50;;;;;;;11.16;97.13;102140.28;2101503;28;20097;-81
2023/02/12 06:24:10;;;;;;;4.88;2.30;;;;;;;11.15;97.90;102142.03;2091251;28;20053;-81
2023/02/12 06:25:34;;;;;;;7.97;1.63;;;;;;;11.13;98.39;102149.00;2077681;28;20057;-81
2023/02/12 06:26:57;;;;;;;4.18;2.45;;;;;;;11.18;98.91;102138.59;2092956;28;20051;-81
2023/02/12 06:28:18;;;;;;;5.38;2.00;;;;;;;11.27;99.48;102151.25;2090847;28;20032;-82
2023/02/12 06:29:41;;;;;;;7.22;2.25;;;;;;;11.37;99.41;102151.59;2101854;28;20056;-83
2023/02/12 06:31:03;;;;;;;5.22;1.92;;;;;;;11.42;98.96;102151.78;2082665;28;20080;-81
2023/02/12 06:32:26;;;;;;;6.10;3.00;;;;;;;11.46;98.36;102143.09;2084721;28;20119;-82
2023/02/12 06:33:47;;;;;;;4.55;2.20;;;;;;;11.55;97.71;102146.94;2084378;28;20110;-80
2023/02/12 06:35:10;;;;;;;5.45;3.10;;;;;;;11.62;97.05;102142.75;2093398;28;20137;-81
2023/02/12 06:36:31;;;;;;;7.75;3.20;;;;;;;11.71;96.75;102139.53;2084907;28;20558;-81
2023/02/12 06:37:55;;;;;;;8.38;2.35;;;;;;;11.75;95.80;102133.53;2076335;28;20061;-82